^^

Nearby METAR Reports

 

KBJC - Broomfield/Jeffc, Colorado, USA
Distance from station: ESE 4mi, 6km
Updated: 09/24/2020 12:56 pm
Partly cloudy
Partly cloudy
 Wind from SSE
Wind: SSE 7 mph , 11 km/h
Temperature: 84°F , 29°C
Dew Point: 28°F , -2°C
Humidity: 13%
Barometer: 1019 hPa
Clouds: Partly cloudy
Visibility: 10 miles , 16 km
Cloud details: Partly cloudy 20000 ft
2020/09/24 18:56 KBJC 241856Z 16006KT 10SM SCT200 29/M02 A3009
KBDU - Boulder Muni, Colorado, USA
Distance from station: NNW 8mi, 13km
Updated: 09/24/2020 1:12 pm
Clear
Clear
 Wind from NE
Wind: NE 5 mph , 7 km/h
Temperature: 82°F , 28°C
Dew Point: 41°F , 5°C
Humidity: 23%
Barometer: 1017.3 hPa
Clouds: Clear
Visibility: 10 miles , 16 km
2020/09/24 19:12 KBDU 241912Z AUTO 05004KT 10SM CLR 28/05 A3004 RMK AO2
 
KEIK - Erie Muni, Colorado, USA
Distance from station: NE 8mi, 14km
Updated: 09/24/2020 1:15 pm
Clear
Clear
 Wind from SE
Wind: SE 9 mph , 15 km/h
Temperature: 86°F , 30°C
Dew Point: 27°F , -3°C
Humidity: 11%
Barometer: 1017.3 hPa
Clouds: Clear
Visibility: 10 miles , 16 km
2020/09/24 19:15 KEIK 241915Z AUTO 13008KT 10SM CLR 30/M03 A3004 RMK AO2 T02971028 PWINO
KLMO - Longmont/Vbrand, Colorado, USA
Distance from station: N 17mi, 27km
Updated: 09/24/2020 12:55 pm
Clear
Clear
 Wind from calm
Wind: Calm
Temperature: 82°F , 28°C
Dew Point: 37°F , 3°C
Humidity: 20%
Barometer: 1017.9 hPa
Clouds: Clear
Visibility: 10 miles , 16 km
2020/09/24 18:55 KLMO 241855Z AUTO 00000KT 10SM CLR 28/03 A3006 RMK AO2 T02810033
 
KBKF - Buckley Angb/Den, Colorado, USA
Distance from station: ESE 26mi, 42km
Updated: 09/24/2020 12:58 pm
Mostly cloudy
Mostly cloudy
 Wind from calm
Wind: Calm
Temperature: 84°F , 29°C
Dew Point: 23°F , -5°C
Humidity: 10%
Barometer: 1019 hPa
Clouds: Mostly cloudy
Visibility: 10 miles , 16 km
Cloud details: Few Clouds 8000 ft
Partly cloudy 13000 ft
Mostly cloudy 22000 ft
2020/09/24 18:58 KBKF 241858Z 00000KT 10SM FEW080 SCT130 BKN220 29/M05 A3009 RMK AO2A SLP110 T02931055
KDEN - Denver (dia), Colorado, USA
Distance from station: E 27mi, 44km
Updated: 09/24/2020 12:53 pm
Mostly cloudy
Mostly cloudy
 Wind from SSW
Wind: SSW 6 mph , 9 km/h
Temperature: 86°F , 30°C
Dew Point: 27°F , -3°C
Humidity: 11%
Barometer: 1018.3 hPa
Clouds: Mostly cloudy
Visibility: 10 miles , 16 km
Cloud details: Partly cloudy 12000 ft
Mostly cloudy 22000 ft
2020/09/24 18:53 KDEN 241853Z 20005KT 10SM SCT120 BKN220 30/M03 A3007 RMK AO2 SLP098 T03001033
 
KAPA - Denver/Arapahoe, Colorado, USA
Distance from station: SE 30mi, 48km
Updated: 09/24/2020 12:53 pm
Mostly cloudy
Mostly cloudy
 Wind from calm
Wind: Calm
Temperature: 82°F , 28°C
Dew Point: 25°F , -4°C
Humidity: 12%
Barometer: 1019.6 hPa
Clouds: Mostly cloudy
Visibility: 10 miles , 16 km
Cloud details: Few Clouds 8000 ft
Partly cloudy 14000 ft
Mostly cloudy 22000 ft
2020/09/24 18:53 KAPA 241853Z 00000KT 10SM FEW080 SCT140 BKN220 28/M04 A3011 RMK AO2 SLP120 T02831039
K0CO - Berthoud Pass, Colorado, USA
Distance from station: WSW 33mi, 54km
Updated: 09/24/2020 12:55 pm
Clear
Clear
 Wind from N
Wind: N 6 mph , 9 km/h, Gust: 16 mph , 26 km/h
Temperature: 50°F , 10°C
Wind Chill: 48°F , 9°C
Dew Point: 32°F , 0°C
Humidity: 50%
Barometer: 1036.9 hPa
Clouds: Clear
Visibility: 10 miles , 16 km
2020/09/24 18:55 K0CO 241855Z AUTO 36005G14KT 10SM CLR 10/00 A3062 RMK AO2 PWINO
 
KFTG - Denver F. Range, Colorado, USA
Distance from station: ESE 34mi, 54km
Updated: 01/29/2020 9:55 pm
NOT Current
Overcast
Overcast
 Wind from W
Wind: W 7 mph , 11 km/h
Temperature: 30°F , -1°C
Wind Chill: 23°F , -5°C
Dew Point: 28°F , -2°C
Humidity: 93%
Barometer: 1017.9 hPa
Clouds: Overcast
Visibility: 10 miles , 16 km
Cloud details: Partly cloudy 1300 ft
Mostly cloudy 2300 ft
Overcast 6000 ft
2020/01/30 04:55 KFTG 300455Z AUTO 26006KT 10SM SCT013 BKN023 OVC060 M01/M02 A3006 RMK AO2 T10111023
KFNL - Ft Collins/Loveland, Colorado, USA
Distance from station: N 37mi, 59km
Updated: 09/24/2020 12:56 pm
Haze, Clear
Haze, Clear
 Wind from S
Wind: S 5 mph , 7 km/h
Temperature: 79°F , 26°C
Dew Point: 43°F , 6°C
Humidity: 28%
Barometer: 1017.6 hPa
Summary: Haze
Clouds: Clear
Visibility: 6 miles , 10 km
2020/09/24 18:56 KFNL 241856Z 17004KT 6SM HZ CLR 26/06 A3005 RMK AO2 SLP118 T02560061
 
KCYS - Cheyenne, Wyoming, USA
Distance from station: NNE 95mi, 153km
Updated: 09/24/2020 12:53 pm
Clear
Clear
 Wind from S
Wind: S 16 mph , 26 km/h
Temperature: 82°F , 28°C
Dew Point: 28°F , -2°C
Humidity: 14%
Barometer: 1019 hPa
Clouds: Clear
Visibility: 10 miles , 16 km
2020/09/24 18:53 KCYS 241853Z 18014KT 10SM CLR 28/M02 A3009 RMK AO2 SLP103 T02781022
KCPR - Casper, Wyoming, USA
Distance from station: NNW 272mi, 438km
Updated: 09/24/2020 12:53 pm
Clear
Clear
 Wind from SW
Wind: SW 25 mph , 41 km/h, Gust: 40 mph , 65 km/h
Temperature: 84°F , 29°C
Dew Point: 27°F , -3°C
Humidity: 12%
Barometer: 1014.6 hPa
Clouds: Clear
Visibility: 10 miles , 16 km
2020/09/24 18:53 KCPR 241853Z 23022G35KT 10SM CLR 29/M03 A2996 RMK AO2 PK WND 24035/1849 RAB26E48 SLP081 P0000 T02891028
 
KGNB - Granby/Grand Co, Colorado, USA
Distance from station: WNW 42mi, 67km
Updated: 09/24/2020 1:12 pm
Clear
Clear
 Wind from WNW
Wind: WNW 8 mph , 13 km/h
Temperature: 72°F , 22°C
Dew Point: 27°F , -3°C
Humidity: 19%
Barometer: 1027.1 hPa
Clouds: Clear
Visibility: 10 miles , 16 km
2020/09/24 19:12 KGNB 241912Z AUTO 30007KT 10SM CLR 22/M03 A3033 RMK AO2 T02151028
KGXY - Greeley/Weld, Colorado, USA
Distance from station: NE 44mi, 71km
Updated: 09/24/2020 12:56 pm
Clear
Clear
 Wind from S
Wind: S 9 mph , 15 km/h
Temperature: 84°F , 29°C
Dew Point: 37°F , 3°C
Humidity: 19%
Barometer: 1016.9 hPa
Clouds: Clear
Visibility: 10 miles , 16 km
2020/09/24 18:56 KGXY 241856Z AUTO 19008KT 10SM CLR 29/03 A3003 RMK AO2 SLP129 T02940033
 
KMNH - Monument/Elbert, Colorado, USA
Distance from station: SSE 56mi, 90km
Updated: 09/24/2020 12:55 pm
Clear
Clear
 Wind from calm
Wind: Calm
Temperature: 77°F , 25°C
Dew Point: 23°F , -5°C
Humidity: 13%
Barometer: 1023.4 hPa
Clouds: Clear
Visibility: 10 miles , 16 km
2020/09/24 18:55 KMNH 241855Z AUTO 00000KT 10SM CLR 25/M05 A3022 RMK AO2